sensor_id;sensor_type;location;lat;lon;timestamp;P1;durP1;ratioP1;P2;durP2;ratioP2
71395;SDS011;59888;55.814;37.132;2024-03-02T00:00:20;46.08;;;21.38;;
71395;SDS011;59888;55.814;37.132;2024-03-02T00:02:48;49.20;;;21.13;;
71395;SDS011;59888;55.814;37.132;2024-03-02T00:05:15;43.90;;;21.10;;
71395;SDS011;59888;55.814;37.132;2024-03-02T00:07:41;48.88;;;22.20;;
71395;SDS011;59888;55.814;37.132;2024-03-02T00:10:08;57.40;;;22.40;;
71395;SDS011;59888;55.814;37.132;2024-03-02T00:12:36;44.33;;;22.27;;
71395;SDS011;59888;55.814;37.132;2024-03-02T00:15:06;53.33;;;20.60;;
71395;SDS011;59888;55.814;37.132;2024-03-02T00:17:32;47.28;;;21.15;;
71395;SDS011;59888;55.814;37.132;2024-03-02T00:19:58;46.25;;;20.92;;
71395;SDS011;59888;55.814;37.132;2024-03-02T00:22:25;47.53;;;21.02;;
71395;SDS011;59888;55.814;37.132;2024-03-02T00:24:51;51.50;;;21.70;;
71395;SDS011;59888;55.814;37.132;2024-03-02T00:27:16;46.13;;;20.98;;
71395;SDS011;59888;55.814;37.132;2024-03-02T00:29:45;49.70;;;20.95;;
71395;SDS011;59888;55.814;37.132;2024-03-02T00:32:14;47.20;;;21.45;;
71395;SDS011;59888;55.814;37.132;2024-03-02T00:34:41;47.10;;;21.58;;
71395;SDS011;59888;55.814;37.132;2024-03-02T00:37:08;51.28;;;22.42;;
71395;SDS011;59888;55.814;37.132;2024-03-02T00:39:34;50.75;;;23.30;;
71395;SDS011;59888;55.814;37.132;2024-03-02T00:41:59;51.40;;;23.02;;
71395;SDS011;59888;55.814;37.132;2024-03-02T00:44:31;46.13;;;21.88;;
71395;SDS011;59888;55.814;37.132;2024-03-02T00:47:01;45.50;;;21.33;;
71395;SDS011;59888;55.814;37.132;2024-03-02T00:49:27;50.42;;;21.73;;
71395;SDS011;59888;55.814;37.132;2024-03-02T00:51:54;47.35;;;22.83;;
71395;SDS011;59888;55.814;37.132;2024-03-02T00:54:20;53.63;;;22.05;;
71395;SDS011;59888;55.814;37.132;2024-03-02T00:56:46;57.17;;;22.05;;
71395;SDS011;59888;55.814;37.132;2024-03-02T00:59:12;50.55;;;22.35;;
71395;SDS011;59888;55.814;37.132;2024-03-02T01:01:38;49.15;;;24.48;;
71395;SDS011;59888;55.814;37.132;2024-03-02T01:04:05;50.83;;;23.90;;
71395;SDS011;59888;55.814;37.132;2024-03-02T01:06:31;50.63;;;22.35;;
71395;SDS011;59888;55.814;37.132;2024-03-02T01:08:56;53.55;;;23.52;;
71395;SDS011;59888;55.814;37.132;2024-03-02T01:11:23;47.50;;;22.10;;
71395;SDS011;59888;55.814;37.132;2024-03-02T01:13:48;49.80;;;22.63;;
71395;SDS011;59888;55.814;37.132;2024-03-02T01:16:29;51.58;;;22.13;;
71395;SDS011;59888;55.814;37.132;2024-03-02T01:18:55;53.17;;;22.88;;
71395;SDS011;59888;55.814;37.132;2024-03-02T01:21:21;47.05;;;21.70;;
71395;SDS011;59888;55.814;37.132;2024-03-02T01:23:47;45.55;;;23.00;;
71395;SDS011;59888;55.814;37.132;2024-03-02T01:26:14;52.63;;;21.27;;
71395;SDS011;59888;55.814;37.132;2024-03-02T01:28:39;42.70;;;21.27;;
71395;SDS011;59888;55.814;37.132;2024-03-02T01:31:05;47.10;;;21.30;;
71395;SDS011;59888;55.814;37.132;2024-03-02T01:33:31;42.85;;;19.85;;
71395;SDS011;59888;55.814;37.132;2024-03-02T01:36:02;50.92;;;21.13;;
71395;SDS011;59888;55.814;37.132;2024-03-02T01:38:28;49.80;;;22.05;;
71395;SDS011;59888;55.814;37.132;2024-03-02T01:44:16;48.95;;;20.65;;
71395;SDS011;59888;55.814;37.132;2024-03-02T01:46:42;42.85;;;20.50;;
71395;SDS011;59888;55.814;37.132;2024-03-02T01:49:08;46.65;;;20.83;;
71395;SDS011;59888;55.814;37.132;2024-03-02T01:51:34;42.15;;;19.90;;
71395;SDS011;59888;55.814;37.132;2024-03-02T01:54:00;44.95;;;19.38;;
71395;SDS011;59888;55.814;37.132;2024-03-02T01:56:26;47.60;;;20.13;;
71395;SDS011;59888;55.814;37.132;2024-03-02T01:58:52;44.53;;;20.40;;
71395;SDS011;59888;55.814;37.132;2024-03-02T02:01:18;54.55;;;21.83;;
71395;SDS011;59888;55.814;37.132;2024-03-02T02:03:44;46.53;;;21.23;;
71395;SDS011;59888;55.814;37.132;2024-03-02T02:06:10;43.67;;;20.35;;
71395;SDS011;59888;55.814;37.132;2024-03-02T02:08:38;45.88;;;20.60;;
71395;SDS011;59888;55.814;37.132;2024-03-02T02:11:04;49.35;;;21.40;;
71395;SDS011;59888;55.814;37.132;2024-03-02T02:13:30;47.95;;;20.60;;
71395;SDS011;59888;55.814;37.132;2024-03-02T02:16:03;44.08;;;22.10;;
71395;SDS011;59888;55.814;37.132;2024-03-02T02:18:29;46.00;;;21.57;;
71395;SDS011;59888;55.814;37.132;2024-03-02T02:20:55;43.08;;;20.65;;
71395;SDS011;59888;55.814;37.132;2024-03-02T02:23:21;44.58;;;21.58;;
71395;SDS011;59888;55.814;37.132;2024-03-02T02:25:47;44.67;;;21.63;;
71395;SDS011;59888;55.814;37.132;2024-03-02T02:28:14;51.20;;;22.23;;
71395;SDS011;59888;55.814;37.132;2024-03-02T02:30:40;46.80;;;21.42;;
71395;SDS011;59888;55.814;37.132;2024-03-02T02:33:06;46.08;;;21.90;;
71395;SDS011;59888;55.814;37.132;2024-03-02T02:35:32;47.92;;;22.02;;
71395;SDS011;59888;55.814;37.132;2024-03-02T02:37:58;45.97;;;22.85;;
71395;SDS011;59888;55.814;37.132;2024-03-02T02:40:27;45.85;;;21.35;;
71395;SDS011;59888;55.814;37.132;2024-03-02T02:42:56;57.78;;;22.58;;
71395;SDS011;59888;55.814;37.132;2024-03-02T02:45:27;46.38;;;20.85;;
71395;SDS011;59888;55.814;37.132;2024-03-02T02:47:53;38.13;;;19.35;;
71395;SDS011;59888;55.814;37.132;2024-03-02T02:50:19;42.10;;;21.42;;
71395;SDS011;59888;55.814;37.132;2024-03-02T02:52:45;48.85;;;21.25;;
71395;SDS011;59888;55.814;37.132;2024-03-02T02:55:11;45.78;;;21.67;;
71395;SDS011;59888;55.814;37.132;2024-03-02T02:57:39;50.83;;;22.35;;
71395;SDS011;59888;55.814;37.132;2024-03-02T03:00:08;45.28;;;20.58;;
71395;SDS011;59888;55.814;37.132;2024-03-02T03:02:36;43.28;;;21.40;;
71395;SDS011;59888;55.814;37.132;2024-03-02T03:05:04;44.00;;;20.48;;
71395;SDS011;59888;55.814;37.132;2024-03-02T03:07:30;43.90;;;20.55;;
71395;SDS011;59888;55.814;37.132;2024-03-02T03:09:55;47.17;;;21.33;;
71395;SDS011;59888;55.814;37.132;2024-03-02T03:12:23;43.95;;;21.67;;
71395;SDS011;59888;55.814;37.132;2024-03-02T03:14:49;45.40;;;21.75;;
71395;SDS011;59888;55.814;37.132;2024-03-02T03:17:15;46.17;;;20.55;;
71395;SDS011;59888;55.814;37.132;2024-03-02T03:19:41;41.20;;;21.85;;
71395;SDS011;59888;55.814;37.132;2024-03-02T03:22:07;50.03;;;22.23;;
71395;SDS011;59888;55.814;37.132;2024-03-02T03:24:33;49.33;;;21.40;;
71395;SDS011;59888;55.814;37.132;2024-03-02T03:26:59;42.97;;;20.63;;
71395;SDS011;59888;55.814;37.132;2024-03-02T03:29:25;45.10;;;22.05;;
71395;SDS011;59888;55.814;37.132;2024-03-02T03:31:51;45.22;;;21.27;;
71395;SDS011;59888;55.814;37.132;2024-03-02T03:34:18;46.88;;;21.90;;
71395;SDS011;59888;55.814;37.132;2024-03-02T03:36:44;40.40;;;20.00;;
71395;SDS011;59888;55.814;37.132;2024-03-02T03:39:10;43.17;;;20.77;;
71395;SDS011;59888;55.814;37.132;2024-03-02T03:41:37;40.13;;;19.90;;
71395;SDS011;59888;55.814;37.132;2024-03-02T03:44:03;46.63;;;22.13;;
71395;SDS011;59888;55.814;37.132;2024-03-02T03:46:39;44.33;;;21.83;;
71395;SDS011;59888;55.814;37.132;2024-03-02T03:49:06;41.47;;;21.08;;
71395;SDS011;59888;55.814;37.132;2024-03-02T03:51:33;44.85;;;21.23;;
71395;SDS011;59888;55.814;37.132;2024-03-02T03:53:59;48.08;;;22.77;;
71395;SDS011;59888;55.814;37.132;2024-03-02T03:56:26;43.45;;;21.70;;
71395;SDS011;59888;55.814;37.132;2024-03-02T03:58:52;45.40;;;21.08;;
71395;SDS011;59888;55.814;37.132;2024-03-02T04:01:18;43.92;;;20.85;;
71395;SDS011;59888;55.814;37.132;2024-03-02T04:03:44;47.85;;;22.75;;
71395;SDS011;59888;55.814;37.132;2024-03-02T04:06:10;41.40;;;20.60;;
71395;SDS011;59888;55.814;37.132;2024-03-02T04:08:36;43.10;;;20.90;;
71395;SDS011;59888;55.814;37.132;2024-03-02T04:11:02;44.63;;;21.63;;
71395;SDS011;59888;55.814;37.132;2024-03-02T04:13:28;49.58;;;22.05;;
71395;SDS011;59888;55.814;37.132;2024-03-02T04:15:59;40.40;;;22.15;;
71395;SDS011;59888;55.814;37.132;2024-03-02T04:18:26;40.95;;;22.35;;
71395;SDS011;59888;55.814;37.132;2024-03-02T04:20:52;43.63;;;21.77;;
71395;SDS011;59888;55.814;37.132;2024-03-02T04:23:18;44.60;;;22.17;;
71395;SDS011;59888;55.814;37.132;2024-03-02T04:25:44;48.83;;;21.98;;
71395;SDS011;59888;55.814;37.132;2024-03-02T04:28:10;46.92;;;21.27;;
71395;SDS011;59888;55.814;37.132;2024-03-02T04:30:36;47.20;;;21.90;;
71395;SDS011;59888;55.814;37.132;2024-03-02T04:33:02;46.35;;;21.85;;
71395;SDS011;59888;55.814;37.132;2024-03-02T04:35:29;46.80;;;22.08;;
71395;SDS011;59888;55.814;37.132;2024-03-02T04:37:54;44.35;;;22.38;;
71395;SDS011;59888;55.814;37.132;2024-03-02T04:40:21;42.47;;;21.77;;
71395;SDS011;59888;55.814;37.132;2024-03-02T04:42:46;47.20;;;22.40;;
71395;SDS011;59888;55.814;37.132;2024-03-02T04:45:12;51.83;;;22.48;;
71395;SDS011;59888;55.814;37.132;2024-03-02T04:47:39;43.13;;;20.70;;
71395;SDS011;59888;55.814;37.132;2024-03-02T04:50:07;48.00;;;20.80;;
71395;SDS011;59888;55.814;37.132;2024-03-02T04:52:36;46.17;;;21.20;;
71395;SDS011;59888;55.814;37.132;2024-03-02T04:55:11;44.78;;;20.67;;
71395;SDS011;59888;55.814;37.132;2024-03-02T04:58:15;41.50;;;21.67;;
71395;SDS011;59888;55.814;37.132;2024-03-02T05:00:42;46.58;;;20.67;;
71395;SDS011;59888;55.814;37.132;2024-03-02T05:03:08;42.20;;;19.73;;
71395;SDS011;59888;55.814;37.132;2024-03-02T05:05:34;48.78;;;22.05;;
71395;SDS011;59888;55.814;37.132;2024-03-02T05:08:01;43.15;;;19.98;;
71395;SDS011;59888;55.814;37.132;2024-03-02T05:10:26;46.40;;;21.33;;
71395;SDS011;59888;55.814;37.132;2024-03-02T05:12:52;42.90;;;21.35;;
71395;SDS011;59888;55.814;37.132;2024-03-02T05:15:23;48.25;;;21.77;;
71395;SDS011;59888;55.814;37.132;2024-03-02T05:17:48;45.47;;;21.52;;
71395;SDS011;59888;55.814;37.132;2024-03-02T05:20:14;48.10;;;21.23;;
71395;SDS011;59888;55.814;37.132;2024-03-02T05:22:41;42.95;;;22.00;;
71395;SDS011;59888;55.814;37.132;2024-03-02T05:25:07;46.92;;;22.00;;
71395;SDS011;59888;55.814;37.132;2024-03-02T05:27:32;47.95;;;22.80;;
71395;SDS011;59888;55.814;37.132;2024-03-02T05:30:01;45.63;;;22.52;;
71395;SDS011;59888;55.814;37.132;2024-03-02T05:32:30;48.17;;;22.70;;
71395;SDS011;59888;55.814;37.132;2024-03-02T05:34:56;48.70;;;22.85;;
71395;SDS011;59888;55.814;37.132;2024-03-02T05:37:22;47.70;;;22.63;;
71395;SDS011;59888;55.814;37.132;2024-03-02T05:39:47;54.10;;;22.95;;
71395;SDS011;59888;55.814;37.132;2024-03-02T05:42:13;48.72;;;24.30;;
71395;SDS011;59888;55.814;37.132;2024-03-02T05:44:41;51.42;;;23.80;;
71395;SDS011;59888;55.814;37.132;2024-03-02T05:47:06;54.97;;;24.30;;
71395;SDS011;59888;55.814;37.132;2024-03-02T05:49:34;51.10;;;24.15;;
71395;SDS011;59888;55.814;37.132;2024-03-02T05:52:00;56.50;;;25.23;;
71395;SDS011;59888;55.814;37.132;2024-03-02T05:54:26;54.40;;;25.10;;
71395;SDS011;59888;55.814;37.132;2024-03-02T05:56:51;51.03;;;24.13;;
71395;SDS011;59888;55.814;37.132;2024-03-02T05:59:19;47.15;;;23.30;;
71395;SDS011;59888;55.814;37.132;2024-03-02T06:01:45;49.70;;;23.70;;
71395;SDS011;59888;55.814;37.132;2024-03-02T06:04:18;43.65;;;22.98;;
71395;SDS011;59888;55.814;37.132;2024-03-02T06:06:44;43.85;;;21.95;;
71395;SDS011;59888;55.814;37.132;2024-03-02T06:09:10;48.17;;;22.52;;
71395;SDS011;59888;55.814;37.132;2024-03-02T06:11:38;46.08;;;21.95;;
71395;SDS011;59888;55.814;37.132;2024-03-02T06:14:05;47.70;;;22.60;;
71395;SDS011;59888;55.814;37.132;2024-03-02T06:16:31;53.33;;;22.80;;
71395;SDS011;59888;55.814;37.132;2024-03-02T06:18:57;50.20;;;21.95;;
71395;SDS011;59888;55.814;37.132;2024-03-02T06:21:24;52.65;;;24.00;;
71395;SDS011;59888;55.814;37.132;2024-03-02T06:23:49;52.95;;;23.60;;
71395;SDS011;59888;55.814;37.132;2024-03-02T06:26:15;50.80;;;24.33;;
71395;SDS011;59888;55.814;37.132;2024-03-02T06:28:42;45.17;;;21.88;;
71395;SDS011;59888;55.814;37.132;2024-03-02T06:31:08;47.22;;;22.20;;
71395;SDS011;59888;55.814;37.132;2024-03-02T06:33:34;49.67;;;22.58;;
71395;SDS011;59888;55.814;37.132;2024-03-02T06:36:00;50.72;;;24.25;;
71395;SDS011;59888;55.814;37.132;2024-03-02T06:38:26;54.30;;;22.85;;
71395;SDS011;59888;55.814;37.132;2024-03-02T06:40:52;47.85;;;23.00;;
71395;SDS011;59888;55.814;37.132;2024-03-02T06:43:22;47.28;;;22.52;;
71395;SDS011;59888;55.814;37.132;2024-03-02T06:45:49;50.80;;;23.80;;
71395;SDS011;59888;55.814;37.132;2024-03-02T06:48:15;48.10;;;23.02;;
71395;SDS011;59888;55.814;37.132;2024-03-02T06:50:46;46.88;;;24.08;;
71395;SDS011;59888;55.814;37.132;2024-03-02T06:53:13;49.40;;;24.55;;
71395;SDS011;59888;55.814;37.132;2024-03-02T06:55:39;50.83;;;24.20;;
71395;SDS011;59888;55.814;37.132;2024-03-02T06:58:07;58.90;;;25.02;;
71395;SDS011;59888;55.814;37.132;2024-03-02T07:00:32;49.95;;;24.75;;
71395;SDS011;59888;55.814;37.132;2024-03-02T07:02:58;55.85;;;25.35;;
71395;SDS011;59888;55.814;37.132;2024-03-02T07:05:35;56.75;;;26.25;;
71395;SDS011;59888;55.814;37.132;2024-03-02T07:08:01;52.95;;;24.73;;
71395;SDS011;59888;55.814;37.132;2024-03-02T07:10:28;53.85;;;23.92;;
71395;SDS011;59888;55.814;37.132;2024-03-02T07:12:54;55.72;;;25.58;;
71395;SDS011;59888;55.814;37.132;2024-03-02T07:15:25;60.80;;;27.70;;
71395;SDS011;59888;55.814;37.132;2024-03-02T07:18:12;54.83;;;26.27;;
71395;SDS011;59888;55.814;37.132;2024-03-02T07:20:37;55.42;;;26.70;;
71395;SDS011;59888;55.814;37.132;2024-03-02T07:23:04;52.72;;;25.88;;
71395;SDS011;59888;55.814;37.132;2024-03-02T07:25:31;59.13;;;27.63;;
71395;SDS011;59888;55.814;37.132;2024-03-02T07:27:56;59.20;;;26.77;;
71395;SDS011;59888;55.814;37.132;2024-03-02T07:30:25;60.40;;;27.50;;
71395;SDS011;59888;55.814;37.132;2024-03-02T07:32:51;59.70;;;28.80;;
71395;SDS011;59888;55.814;37.132;2024-03-02T07:35:16;63.90;;;29.30;;
71395;SDS011;59888;55.814;37.132;2024-03-02T07:37:43;63.95;;;28.00;;
71395;SDS011;59888;55.814;37.132;2024-03-02T07:42:56;59.92;;;28.40;;
71395;SDS011;59888;55.814;37.132;2024-03-02T07:45:22;67.80;;;31.13;;
71395;SDS011;59888;55.814;37.132;2024-03-02T07:47:48;62.28;;;30.00;;
71395;SDS011;59888;55.814;37.132;2024-03-02T07:50:15;64.50;;;30.05;;
71395;SDS011;59888;55.814;37.132;2024-03-02T07:52:41;64.43;;;29.92;;
71395;SDS011;59888;55.814;37.132;2024-03-02T07:55:07;58.55;;;29.52;;
71395;SDS011;59888;55.814;37.132;2024-03-02T07:57:33;69.53;;;31.30;;
71395;SDS011;59888;55.814;37.132;2024-03-02T07:59:59;63.72;;;30.08;;
71395;SDS011;59888;55.814;37.132;2024-03-02T08:02:24;67.97;;;31.65;;
71395;SDS011;59888;55.814;37.132;2024-03-02T08:04:51;66.95;;;31.25;;
71395;SDS011;59888;55.814;37.132;2024-03-02T08:07:17;72.88;;;32.00;;
71395;SDS011;59888;55.814;37.132;2024-03-02T08:09:42;67.18;;;31.92;;
71395;SDS011;59888;55.814;37.132;2024-03-02T08:12:10;63.85;;;31.40;;
71395;SDS011;59888;55.814;37.132;2024-03-02T08:14:36;67.80;;;33.75;;
71395;SDS011;59888;55.814;37.132;2024-03-02T08:17:01;70.72;;;32.63;;
71395;SDS011;59888;55.814;37.132;2024-03-02T08:19:27;65.80;;;33.03;;
71395;SDS011;59888;55.814;37.132;2024-03-02T08:21:53;70.35;;;33.08;;
71395;SDS011;59888;55.814;37.132;2024-03-02T08:24:19;69.10;;;34.72;;
71395;SDS011;59888;55.814;37.132;2024-03-02T08:26:50;69.85;;;36.17;;
71395;SDS011;59888;55.814;37.132;2024-03-02T08:29:16;71.38;;;34.15;;
71395;SDS011;59888;55.814;37.132;2024-03-02T08:31:41;70.18;;;33.10;;
71395;SDS011;59888;55.814;37.132;2024-03-02T08:34:08;65.72;;;34.08;;
71395;SDS011;59888;55.814;37.132;2024-03-02T08:36:34;70.80;;;34.17;;
71395;SDS011;59888;55.814;37.132;2024-03-02T08:39:00;71.72;;;34.38;;
71395;SDS011;59888;55.814;37.132;2024-03-02T08:41:26;72.97;;;35.08;;
71395;SDS011;59888;55.814;37.132;2024-03-02T08:43:52;72.60;;;36.72;;
71395;SDS011;59888;55.814;37.132;2024-03-02T08:46:17;77.70;;;35.55;;
71395;SDS011;59888;55.814;37.132;2024-03-02T08:48:45;71.22;;;35.00;;
71395;SDS011;59888;55.814;37.132;2024-03-02T08:51:11;71.25;;;34.97;;
71395;SDS011;59888;55.814;37.132;2024-03-02T08:53:36;73.80;;;38.42;;
71395;SDS011;59888;55.814;37.132;2024-03-02T08:56:04;78.15;;;38.33;;
71395;SDS011;59888;55.814;37.132;2024-03-02T08:58:31;77.15;;;36.50;;
71395;SDS011;59888;55.814;37.132;2024-03-02T09:00:57;75.93;;;36.70;;
71395;SDS011;59888;55.814;37.132;2024-03-02T09:03:24;74.82;;;37.22;;
71395;SDS011;59888;55.814;37.132;2024-03-02T09:05:50;72.57;;;37.53;;
71395;SDS011;59888;55.814;37.132;2024-03-02T09:08:15;70.55;;;35.53;;
71395;SDS011;59888;55.814;37.132;2024-03-02T09:10:42;74.60;;;36.70;;
71395;SDS011;59888;55.814;37.132;2024-03-02T09:13:09;71.25;;;36.42;;
71395;SDS011;59888;55.814;37.132;2024-03-02T09:15:34;74.35;;;36.42;;
71395;SDS011;59888;55.814;37.132;2024-03-02T09:18:03;73.35;;;37.83;;
71395;SDS011;59888;55.814;37.132;2024-03-02T09:20:29;69.32;;;36.55;;
71395;SDS011;59888;55.814;37.132;2024-03-02T09:22:54;73.97;;;36.45;;
71395;SDS011;59888;55.814;37.132;2024-03-02T09:25:20;68.82;;;35.83;;
71395;SDS011;59888;55.814;37.132;2024-03-02T09:27:46;72.28;;;35.78;;
71395;SDS011;59888;55.814;37.132;2024-03-02T09:30:12;70.32;;;35.38;;
71395;SDS011;59888;55.814;37.132;2024-03-02T09:32:40;67.38;;;34.17;;
71395;SDS011;59888;55.814;37.132;2024-03-02T09:35:06;71.00;;;33.72;;
71395;SDS011;59888;55.814;37.132;2024-03-02T09:37:32;70.43;;;35.67;;
71395;SDS011;59888;55.814;37.132;2024-03-02T09:39:58;71.75;;;35.05;;
71395;SDS011;59888;55.814;37.132;2024-03-02T09:42:24;63.72;;;32.45;;
71395;SDS011;59888;55.814;37.132;2024-03-02T09:44:56;60.97;;;31.00;;
71395;SDS011;59888;55.814;37.132;2024-03-02T09:47:24;50.00;;;23.40;;
71395;SDS011;59888;55.814;37.132;2024-03-02T09:49:50;48.03;;;24.80;;
71395;SDS011;59888;55.814;37.132;2024-03-02T09:52:16;60.42;;;30.17;;
71395;SDS011;59888;55.814;37.132;2024-03-02T09:54:42;68.60;;;31.77;;
71395;SDS011;59888;55.814;37.132;2024-03-02T09:57:08;62.10;;;31.33;;
71395;SDS011;59888;55.814;37.132;2024-03-02T09:59:33;65.32;;;31.67;;
71395;SDS011;59888;55.814;37.132;2024-03-02T10:02:03;66.70;;;32.08;;
71395;SDS011;59888;55.814;37.132;2024-03-02T10:04:29;57.25;;;29.25;;
71395;SDS011;59888;55.814;37.132;2024-03-02T10:07:15;61.90;;;31.70;;
71395;SDS011;59888;55.814;37.132;2024-03-02T10:09:43;62.33;;;29.65;;
71395;SDS011;59888;55.814;37.132;2024-03-02T10:12:10;61.22;;;30.83;;
71395;SDS011;59888;55.814;37.132;2024-03-02T10:14:39;62.75;;;30.42;;
71395;SDS011;59888;55.814;37.132;2024-03-02T10:17:06;70.40;;;31.73;;
71395;SDS011;59888;55.814;37.132;2024-03-02T10:19:33;62.75;;;31.35;;
71395;SDS011;59888;55.814;37.132;2024-03-02T10:22:00;66.65;;;32.92;;
71395;SDS011;59888;55.814;37.132;2024-03-02T10:24:41;65.85;;;32.80;;
71395;SDS011;59888;55.814;37.132;2024-03-02T10:27:08;64.88;;;33.05;;
71395;SDS011;59888;55.814;37.132;2024-03-02T10:29:38;64.18;;;32.38;;
71395;SDS011;59888;55.814;37.132;2024-03-02T10:32:05;59.63;;;31.65;;
71395;SDS011;59888;55.814;37.132;2024-03-02T10:34:32;65.13;;;31.98;;
71395;SDS011;59888;55.814;37.132;2024-03-02T10:36:58;62.80;;;32.00;;
71395;SDS011;59888;55.814;37.132;2024-03-02T10:39:25;61.00;;;31.75;;
71395;SDS011;59888;55.814;37.132;2024-03-02T10:41:51;61.60;;;31.75;;
71395;SDS011;59888;55.814;37.132;2024-03-02T10:44:18;68.15;;;32.78;;
71395;SDS011;59888;55.814;37.132;2024-03-02T10:46:44;64.80;;;33.55;;
71395;SDS011;59888;55.814;37.132;2024-03-02T10:49:11;67.32;;;33.78;;
71395;SDS011;59888;55.814;37.132;2024-03-02T10:51:39;60.85;;;31.35;;
71395;SDS011;59888;55.814;37.132;2024-03-02T10:54:05;67.85;;;32.10;;
71395;SDS011;59888;55.814;37.132;2024-03-02T10:56:32;62.95;;;31.90;;
71395;SDS011;59888;55.814;37.132;2024-03-02T10:59:03;65.88;;;32.72;;
71395;SDS011;59888;55.814;37.132;2024-03-02T11:01:29;64.65;;;32.45;;
71395;SDS011;59888;55.814;37.132;2024-03-02T11:03:56;65.88;;;32.15;;
71395;SDS011;59888;55.814;37.132;2024-03-02T11:06:22;61.42;;;30.85;;
71395;SDS011;59888;55.814;37.132;2024-03-02T11:08:48;68.20;;;31.45;;
71395;SDS011;59888;55.814;37.132;2024-03-02T11:11:15;59.88;;;27.85;;
71395;SDS011;59888;55.814;37.132;2024-03-02T11:13:47;53.70;;;26.90;;
71395;SDS011;59888;55.814;37.132;2024-03-02T11:16:57;47.00;;;25.17;;
71395;SDS011;59888;55.814;37.132;2024-03-02T11:19:10;53.15;;;25.65;;
71395;SDS011;59888;55.814;37.132;2024-03-02T11:21:36;48.67;;;24.13;;
71395;SDS011;59888;55.814;37.132;2024-03-02T11:26:47;53.95;;;24.25;;
71395;SDS011;59888;55.814;37.132;2024-03-02T11:31:58;50.63;;;24.42;;
71395;SDS011;59888;55.814;37.132;2024-03-02T11:34:30;53.55;;;25.98;;
71395;SDS011;59888;55.814;37.132;2024-03-02T11:37:05;58.22;;;26.58;;
71395;SDS011;59888;55.814;37.132;2024-03-02T11:39:31;53.63;;;27.10;;
71395;SDS011;59888;55.814;37.132;2024-03-02T11:41:57;53.70;;;27.25;;
71395;SDS011;59888;55.814;37.132;2024-03-02T11:44:27;60.45;;;29.17;;
71395;SDS011;59888;55.814;37.132;2024-03-02T11:46:59;60.53;;;28.42;;
71395;SDS011;59888;55.814;37.132;2024-03-02T11:52:33;64.50;;;29.08;;
71395;SDS011;59888;55.814;37.132;2024-03-02T11:54:59;62.13;;;29.23;;
71395;SDS011;59888;55.814;37.132;2024-03-02T11:57:29;59.20;;;28.75;;
71395;SDS011;59888;55.814;37.132;2024-03-02T11:59:57;56.13;;;29.88;;
71395;SDS011;59888;55.814;37.132;2024-03-02T12:02:24;61.53;;;29.65;;
71395;SDS011;59888;55.814;37.132;2024-03-02T12:04:50;62.35;;;31.50;;
71395;SDS011;59888;55.814;37.132;2024-03-02T12:07:21;64.65;;;30.70;;
71395;SDS011;59888;55.814;37.132;2024-03-02T12:09:48;62.38;;;30.85;;
71395;SDS011;59888;55.814;37.132;2024-03-02T12:12:14;60.88;;;31.00;;
71395;SDS011;59888;55.814;37.132;2024-03-02T12:14:50;58.67;;;29.48;;
71395;SDS011;59888;55.814;37.132;2024-03-02T12:17:16;59.50;;;28.92;;
71395;SDS011;59888;55.814;37.132;2024-03-02T12:19:41;57.13;;;28.50;;
71395;SDS011;59888;55.814;37.132;2024-03-02T12:22:07;54.47;;;28.42;;
71395;SDS011;59888;55.814;37.132;2024-03-02T12:24:33;57.58;;;28.55;;
71395;SDS011;59888;55.814;37.132;2024-03-02T12:26:59;55.25;;;27.02;;
71395;SDS011;59888;55.814;37.132;2024-03-02T12:29:25;56.13;;;27.63;;
71395;SDS011;59888;55.814;37.132;2024-03-02T12:31:51;52.10;;;26.50;;
71395;SDS011;59888;55.814;37.132;2024-03-02T12:34:18;55.22;;;25.63;;
71395;SDS011;59888;55.814;37.132;2024-03-02T12:36:45;49.25;;;25.83;;
71395;SDS011;59888;55.814;37.132;2024-03-02T12:39:13;49.58;;;25.02;;
71395;SDS011;59888;55.814;37.132;2024-03-02T12:41:40;51.22;;;25.17;;
71395;SDS011;59888;55.814;37.132;2024-03-02T12:44:08;51.42;;;25.23;;
71395;SDS011;59888;55.814;37.132;2024-03-02T12:46:34;52.40;;;26.15;;
71395;SDS011;59888;55.814;37.132;2024-03-02T12:49:08;58.63;;;26.63;;
71395;SDS011;59888;55.814;37.132;2024-03-02T12:51:37;48.25;;;24.85;;
71395;SDS011;59888;55.814;37.132;2024-03-02T12:54:03;53.20;;;24.55;;
71395;SDS011;59888;55.814;37.132;2024-03-02T12:56:30;50.80;;;25.55;;
71395;SDS011;59888;55.814;37.132;2024-03-02T12:58:57;49.70;;;25.50;;
71395;SDS011;59888;55.814;37.132;2024-03-02T13:01:24;57.10;;;25.98;;
71395;SDS011;59888;55.814;37.132;2024-03-02T13:03:50;56.45;;;26.00;;
71395;SDS011;59888;55.814;37.132;2024-03-02T13:06:17;46.72;;;24.23;;
71395;SDS011;59888;55.814;37.132;2024-03-02T13:08:43;51.90;;;25.13;;
71395;SDS011;59888;55.814;37.132;2024-03-02T13:11:10;50.65;;;26.10;;
71395;SDS011;59888;55.814;37.132;2024-03-02T13:13:36;47.67;;;24.48;;
71395;SDS011;59888;55.814;37.132;2024-03-02T13:16:09;51.60;;;24.83;;
71395;SDS011;59888;55.814;37.132;2024-03-02T13:18:36;52.53;;;25.45;;
71395;SDS011;59888;55.814;37.132;2024-03-02T13:21:02;47.67;;;25.05;;
71395;SDS011;59888;55.814;37.132;2024-03-02T13:23:28;52.95;;;25.48;;
71395;SDS011;59888;55.814;37.132;2024-03-02T13:25:57;49.08;;;24.27;;
71395;SDS011;59888;55.814;37.132;2024-03-02T13:28:26;50.83;;;25.33;;
71395;SDS011;59888;55.814;37.132;2024-03-02T13:30:51;48.80;;;24.80;;
71395;SDS011;59888;55.814;37.132;2024-03-02T13:33:18;52.58;;;24.40;;
71395;SDS011;59888;55.814;37.132;2024-03-02T13:35:50;46.40;;;24.20;;
71395;SDS011;59888;55.814;37.132;2024-03-02T13:38:16;53.67;;;24.35;;
71395;SDS011;59888;55.814;37.132;2024-03-02T13:40:42;51.22;;;24.52;;
71395;SDS011;59888;55.814;37.132;2024-03-02T13:43:09;55.20;;;25.77;;
71395;SDS011;59888;55.814;37.132;2024-03-02T13:45:35;54.78;;;25.40;;
71395;SDS011;59888;55.814;37.132;2024-03-02T13:48:02;50.10;;;24.30;;
71395;SDS011;59888;55.814;37.132;2024-03-02T13:50:29;48.28;;;24.48;;
71395;SDS011;59888;55.814;37.132;2024-03-02T13:52:58;48.38;;;24.10;;
71395;SDS011;59888;55.814;37.132;2024-03-02T13:55:32;48.35;;;24.73;;
71395;SDS011;59888;55.814;37.132;2024-03-02T13:58:21;46.63;;;23.80;;
71395;SDS011;59888;55.814;37.132;2024-03-02T14:00:50;49.15;;;23.65;;
71395;SDS011;59888;55.814;37.132;2024-03-02T14:03:19;47.25;;;23.42;;
71395;SDS011;59888;55.814;37.132;2024-03-02T14:05:53;47.00;;;22.65;;
71395;SDS011;59888;55.814;37.132;2024-03-02T14:08:21;45.22;;;23.02;;
71395;SDS011;59888;55.814;37.132;2024-03-02T14:10:47;50.53;;;23.63;;
71395;SDS011;59888;55.814;37.132;2024-03-02T14:13:16;47.55;;;24.33;;
71395;SDS011;59888;55.814;37.132;2024-03-02T14:15:43;55.20;;;24.40;;
71395;SDS011;59888;55.814;37.132;2024-03-02T14:18:11;47.25;;;22.92;;
71395;SDS011;59888;55.814;37.132;2024-03-02T14:20:40;46.70;;;21.60;;
71395;SDS011;59888;55.814;37.132;2024-03-02T14:23:10;46.22;;;22.48;;